sensor_id;sensor_type;location;lat;lon;timestamp;P1;durP1;ratioP1;P2;durP2;ratioP2
8319;SDS011;4197;42.130;24.746;2022-07-29T00:00:40;5.43;;;3.28;;
8319;SDS011;4197;42.130;24.746;2022-07-29T00:03:11;7.53;;;3.40;;
8319;SDS011;4197;42.130;24.746;2022-07-29T00:05:40;7.55;;;3.80;;
8319;SDS011;4197;42.130;24.746;2022-07-29T00:08:09;8.65;;;4.00;;
8319;SDS011;4197;42.130;24.746;2022-07-29T00:10:38;5.65;;;3.55;;
8319;SDS011;4197;42.130;24.746;2022-07-29T00:13:06;5.22;;;3.92;;
8319;SDS011;4197;42.130;24.746;2022-07-29T00:15:34;5.72;;;3.85;;
8319;SDS011;4197;42.130;24.746;2022-07-29T00:18:03;6.18;;;4.50;;
8319;SDS011;4197;42.130;24.746;2022-07-29T00:20:31;6.60;;;4.30;;
8319;SDS011;4197;42.130;24.746;2022-07-29T00:23:00;7.18;;;4.47;;
8319;SDS011;4197;42.130;24.746;2022-07-29T00:25:29;7.05;;;5.05;;
8319;SDS011;4197;42.130;24.746;2022-07-29T00:27:59;8.82;;;4.70;;
8319;SDS011;4197;42.130;24.746;2022-07-29T00:30:27;6.43;;;5.32;;
8319;SDS011;4197;42.130;24.746;2022-07-29T00:32:55;5.53;;;4.65;;
8319;SDS011;4197;42.130;24.746;2022-07-29T00:35:23;6.57;;;4.80;;
8319;SDS011;4197;42.130;24.746;2022-07-29T00:38:11;7.80;;;5.47;;
8319;SDS011;4197;42.130;24.746;2022-07-29T00:40:41;8.75;;;4.90;;
8319;SDS011;4197;42.130;24.746;2022-07-29T00:43:09;5.85;;;5.00;;
8319;SDS011;4197;42.130;24.746;2022-07-29T00:45:38;8.35;;;5.43;;
8319;SDS011;4197;42.130;24.746;2022-07-29T00:48:06;6.43;;;4.80;;
8319;SDS011;4197;42.130;24.746;2022-07-29T00:50:35;8.25;;;5.85;;
8319;SDS011;4197;42.130;24.746;2022-07-29T00:53:05;8.15;;;5.65;;
8319;SDS011;4197;42.130;24.746;2022-07-29T00:55:35;9.02;;;5.85;;
8319;SDS011;4197;42.130;24.746;2022-07-29T00:58:03;7.68;;;5.72;;
8319;SDS011;4197;42.130;24.746;2022-07-29T01:00:33;7.43;;;5.35;;
8319;SDS011;4197;42.130;24.746;2022-07-29T01:03:02;8.48;;;6.30;;
8319;SDS011;4197;42.130;24.746;2022-07-29T01:05:30;6.47;;;5.80;;
8319;SDS011;4197;42.130;24.746;2022-07-29T01:08:17;8.30;;;5.88;;
8319;SDS011;4197;42.130;24.746;2022-07-29T01:10:49;9.75;;;6.00;;
8319;SDS011;4197;42.130;24.746;2022-07-29T01:13:20;8.88;;;5.55;;
8319;SDS011;4197;42.130;24.746;2022-07-29T01:15:49;8.93;;;5.70;;
8319;SDS011;4197;42.130;24.746;2022-07-29T01:18:22;8.15;;;5.57;;
8319;SDS011;4197;42.130;24.746;2022-07-29T01:21:05;7.70;;;5.82;;
8319;SDS011;4197;42.130;24.746;2022-07-29T01:24:14;9.50;;;6.03;;
8319;SDS011;4197;42.130;24.746;2022-07-29T01:27:06;9.13;;;6.63;;
8319;SDS011;4197;42.130;24.746;2022-07-29T01:29:56;6.70;;;6.00;;
8319;SDS011;4197;42.130;24.746;2022-07-29T01:32:31;8.82;;;6.35;;
8319;SDS011;4197;42.130;24.746;2022-07-29T01:35:03;6.63;;;5.80;;
8319;SDS011;4197;42.130;24.746;2022-07-29T01:37:36;8.85;;;6.38;;
8319;SDS011;4197;42.130;24.746;2022-07-29T01:40:08;7.25;;;5.70;;
8319;SDS011;4197;42.130;24.746;2022-07-29T01:42:47;7.72;;;5.63;;
8319;SDS011;4197;42.130;24.746;2022-07-29T01:45:20;7.80;;;6.15;;
8319;SDS011;4197;42.130;24.746;2022-07-29T01:47:54;9.13;;;6.30;;
8319;SDS011;4197;42.130;24.746;2022-07-29T01:50:30;7.78;;;6.20;;
8319;SDS011;4197;42.130;24.746;2022-07-29T01:53:07;10.48;;;7.25;;
8319;SDS011;4197;42.130;24.746;2022-07-29T01:55:39;9.52;;;7.18;;
8319;SDS011;4197;42.130;24.746;2022-07-29T01:58:11;11.25;;;7.35;;
8319;SDS011;4197;42.130;24.746;2022-07-29T02:00:46;8.70;;;7.45;;
8319;SDS011;4197;42.130;24.746;2022-07-29T02:03:18;9.20;;;6.68;;
8319;SDS011;4197;42.130;24.746;2022-07-29T02:05:48;8.70;;;6.93;;
8319;SDS011;4197;42.130;24.746;2022-07-29T02:08:18;9.70;;;6.90;;
8319;SDS011;4197;42.130;24.746;2022-07-29T02:10:48;7.95;;;5.53;;
8319;SDS011;4197;42.130;24.746;2022-07-29T02:13:19;9.45;;;7.15;;
8319;SDS011;4197;42.130;24.746;2022-07-29T02:15:52;10.10;;;5.95;;
8319;SDS011;4197;42.130;24.746;2022-07-29T02:18:23;12.60;;;6.40;;
8319;SDS011;4197;42.130;24.746;2022-07-29T02:20:54;7.43;;;5.90;;
8319;SDS011;4197;42.130;24.746;2022-07-29T02:23:24;7.90;;;6.60;;
8319;SDS011;4197;42.130;24.746;2022-07-29T02:25:54;7.90;;;5.90;;
8319;SDS011;4197;42.130;24.746;2022-07-29T02:28:25;10.68;;;5.55;;
8319;SDS011;4197;42.130;24.746;2022-07-29T02:30:59;6.78;;;5.65;;
8319;SDS011;4197;42.130;24.746;2022-07-29T02:33:29;10.15;;;6.10;;
8319;SDS011;4197;42.130;24.746;2022-07-29T02:35:59;7.20;;;6.32;;
8319;SDS011;4197;42.130;24.746;2022-07-29T02:38:29;8.88;;;6.20;;
8319;SDS011;4197;42.130;24.746;2022-07-29T02:41:19;8.00;;;6.45;;
8319;SDS011;4197;42.130;24.746;2022-07-29T02:43:52;8.55;;;6.40;;
8319;SDS011;4197;42.130;24.746;2022-07-29T02:46:25;8.10;;;6.10;;
8319;SDS011;4197;42.130;24.746;2022-07-29T02:48:59;8.77;;;6.20;;
8319;SDS011;4197;42.130;24.746;2022-07-29T02:51:37;10.30;;;6.70;;
8319;SDS011;4197;42.130;24.746;2022-07-29T02:54:11;10.52;;;6.68;;
8319;SDS011;4197;42.130;24.746;2022-07-29T02:56:46;9.98;;;5.72;;
8319;SDS011;4197;42.130;24.746;2022-07-29T02:59:22;6.57;;;5.85;;
8319;SDS011;4197;42.130;24.746;2022-07-29T03:01:55;10.60;;;6.50;;
8319;SDS011;4197;42.130;24.746;2022-07-29T03:04:27;10.60;;;6.53;;
8319;SDS011;4197;42.130;24.746;2022-07-29T03:06:58;9.57;;;6.10;;
8319;SDS011;4197;42.130;24.746;2022-07-29T03:09:28;11.73;;;6.20;;
8319;SDS011;4197;42.130;24.746;2022-07-29T03:11:58;9.02;;;6.93;;
8319;SDS011;4197;42.130;24.746;2022-07-29T03:14:27;12.98;;;7.18;;
8319;SDS011;4197;42.130;24.746;2022-07-29T03:16:59;8.98;;;7.13;;
8319;SDS011;4197;42.130;24.746;2022-07-29T03:19:28;9.40;;;6.80;;
8319;SDS011;4197;42.130;24.746;2022-07-29T03:21:56;7.68;;;6.65;;
8319;SDS011;4197;42.130;24.746;2022-07-29T03:24:29;14.38;;;7.55;;
8319;SDS011;4197;42.130;24.746;2022-07-29T03:26:58;9.63;;;6.40;;
8319;SDS011;4197;42.130;24.746;2022-07-29T03:29:27;14.38;;;6.90;;
8319;SDS011;4197;42.130;24.746;2022-07-29T03:32:01;8.82;;;6.25;;
8319;SDS011;4197;42.130;24.746;2022-07-29T03:34:34;8.43;;;6.07;;
8319;SDS011;4197;42.130;24.746;2022-07-29T03:37:03;8.13;;;6.07;;
8319;SDS011;4197;42.130;24.746;2022-07-29T03:39:33;7.57;;;5.85;;
8319;SDS011;4197;42.130;24.746;2022-07-29T03:42:06;8.45;;;6.07;;
8319;SDS011;4197;42.130;24.746;2022-07-29T03:44:38;9.75;;;6.20;;
8319;SDS011;4197;42.130;24.746;2022-07-29T03:47:10;10.20;;;5.80;;
8319;SDS011;4197;42.130;24.746;2022-07-29T03:49:42;7.13;;;5.80;;
8319;SDS011;4197;42.130;24.746;2022-07-29T03:52:12;10.07;;;6.22;;
8319;SDS011;4197;42.130;24.746;2022-07-29T03:54:41;8.07;;;5.82;;
8319;SDS011;4197;42.130;24.746;2022-07-29T03:57:12;11.13;;;5.95;;
8319;SDS011;4197;42.130;24.746;2022-07-29T03:59:42;8.13;;;6.72;;
8319;SDS011;4197;42.130;24.746;2022-07-29T04:02:14;10.45;;;7.00;;
8319;SDS011;4197;42.130;24.746;2022-07-29T04:04:48;9.55;;;6.05;;
8319;SDS011;4197;42.130;24.746;2022-07-29T04:07:17;8.70;;;6.20;;
8319;SDS011;4197;42.130;24.746;2022-07-29T04:09:46;10.20;;;6.78;;
8319;SDS011;4197;42.130;24.746;2022-07-29T04:12:14;9.20;;;7.18;;
8319;SDS011;4197;42.130;24.746;2022-07-29T04:14:42;8.98;;;7.30;;
8319;SDS011;4197;42.130;24.746;2022-07-29T04:17:11;10.05;;;7.65;;
8319;SDS011;4197;42.130;24.746;2022-07-29T04:19:40;12.48;;;7.63;;
8319;SDS011;4197;42.130;24.746;2022-07-29T04:22:09;10.88;;;7.93;;
8319;SDS011;4197;42.130;24.746;2022-07-29T04:24:37;14.77;;;8.40;;
8319;SDS011;4197;42.130;24.746;2022-07-29T04:27:09;13.05;;;7.88;;
8319;SDS011;4197;42.130;24.746;2022-07-29T04:29:37;14.52;;;10.15;;
8319;SDS011;4197;42.130;24.746;2022-07-29T04:32:22;13.63;;;11.35;;
8319;SDS011;4197;42.130;24.746;2022-07-29T04:34:52;25.70;;;15.27;;
8319;SDS011;4197;42.130;24.746;2022-07-29T04:37:20;28.45;;;19.40;;
8319;SDS011;4197;42.130;24.746;2022-07-29T04:39:48;27.55;;;19.42;;
8319;SDS011;4197;42.130;24.746;2022-07-29T04:42:17;24.40;;;18.73;;
8319;SDS011;4197;42.130;24.746;2022-07-29T04:44:52;23.17;;;18.15;;
8319;SDS011;4197;42.130;24.746;2022-07-29T04:47:21;31.63;;;16.50;;
8319;SDS011;4197;42.130;24.746;2022-07-29T04:49:50;22.67;;;15.65;;
8319;SDS011;4197;42.130;24.746;2022-07-29T04:52:19;21.38;;;11.65;;
8319;SDS011;4197;42.130;24.746;2022-07-29T04:54:48;13.93;;;9.27;;
8319;SDS011;4197;42.130;24.746;2022-07-29T04:57:16;10.57;;;8.75;;
8319;SDS011;4197;42.130;24.746;2022-07-29T04:59:45;11.70;;;9.35;;
8319;SDS011;4197;42.130;24.746;2022-07-29T05:02:13;11.50;;;9.50;;
8319;SDS011;4197;42.130;24.746;2022-07-29T05:04:41;14.02;;;9.20;;
8319;SDS011;4197;42.130;24.746;2022-07-29T05:07:09;12.48;;;9.00;;
8319;SDS011;4197;42.130;24.746;2022-07-29T05:09:39;10.68;;;9.60;;
8319;SDS011;4197;42.130;24.746;2022-07-29T05:12:07;12.90;;;9.50;;
8319;SDS011;4197;42.130;24.746;2022-07-29T05:14:36;14.88;;;10.57;;
8319;SDS011;4197;42.130;24.746;2022-07-29T05:17:04;16.42;;;9.95;;
8319;SDS011;4197;42.130;24.746;2022-07-29T05:19:33;14.05;;;9.30;;
8319;SDS011;4197;42.130;24.746;2022-07-29T05:22:05;16.02;;;10.10;;
8319;SDS011;4197;42.130;24.746;2022-07-29T05:24:33;13.32;;;9.65;;
8319;SDS011;4197;42.130;24.746;2022-07-29T05:27:03;12.82;;;8.10;;
8319;SDS011;4197;42.130;24.746;2022-07-29T05:29:31;9.57;;;8.07;;
8319;SDS011;4197;42.130;24.746;2022-07-29T05:32:10;16.95;;;8.20;;
8319;SDS011;4197;42.130;24.746;2022-07-29T05:34:38;12.27;;;6.78;;
8319;SDS011;4197;42.130;24.746;2022-07-29T05:37:16;11.10;;;6.72;;
8319;SDS011;4197;42.130;24.746;2022-07-29T05:39:45;10.27;;;6.50;;
8319;SDS011;4197;42.130;24.746;2022-07-29T05:42:24;8.88;;;6.75;;
8319;SDS011;4197;42.130;24.746;2022-07-29T05:44:53;9.77;;;6.88;;
8319;SDS011;4197;42.130;24.746;2022-07-29T05:47:21;13.55;;;6.97;;
8319;SDS011;4197;42.130;24.746;2022-07-29T05:49:49;12.32;;;7.43;;
8319;SDS011;4197;42.130;24.746;2022-07-29T05:52:18;11.00;;;7.15;;
8319;SDS011;4197;42.130;24.746;2022-07-29T05:54:46;12.27;;;7.25;;
8319;SDS011;4197;42.130;24.746;2022-07-29T05:57:15;17.27;;;7.93;;
8319;SDS011;4197;42.130;24.746;2022-07-29T05:59:45;9.52;;;7.43;;
8319;SDS011;4197;42.130;24.746;2022-07-29T06:02:14;11.95;;;7.25;;
8319;SDS011;4197;42.130;24.746;2022-07-29T06:04:43;11.18;;;7.15;;
8319;SDS011;4197;42.130;24.746;2022-07-29T06:07:12;9.05;;;7.03;;
8319;SDS011;4197;42.130;24.746;2022-07-29T06:09:40;10.23;;;7.15;;
8319;SDS011;4197;42.130;24.746;2022-07-29T06:12:08;11.52;;;7.70;;
8319;SDS011;4197;42.130;24.746;2022-07-29T06:14:37;10.07;;;7.50;;
8319;SDS011;4197;42.130;24.746;2022-07-29T06:17:06;12.57;;;7.70;;
8319;SDS011;4197;42.130;24.746;2022-07-29T06:19:35;11.77;;;7.60;;
8319;SDS011;4197;42.130;24.746;2022-07-29T06:22:03;12.68;;;7.95;;
8319;SDS011;4197;42.130;24.746;2022-07-29T06:24:31;11.73;;;8.02;;
8319;SDS011;4197;42.130;24.746;2022-07-29T06:26:59;10.65;;;8.43;;
8319;SDS011;4197;42.130;24.746;2022-07-29T06:29:28;13.25;;;7.95;;
8319;SDS011;4197;42.130;24.746;2022-07-29T06:31:56;12.43;;;8.43;;
8319;SDS011;4197;42.130;24.746;2022-07-29T06:34:25;9.82;;;8.35;;
8319;SDS011;4197;42.130;24.746;2022-07-29T06:36:53;13.18;;;8.43;;
8319;SDS011;4197;42.130;24.746;2022-07-29T06:39:22;12.25;;;8.80;;
8319;SDS011;4197;42.130;24.746;2022-07-29T06:41:50;10.90;;;9.63;;
8319;SDS011;4197;42.130;24.746;2022-07-29T06:44:18;9.68;;;8.70;;
8319;SDS011;4197;42.130;24.746;2022-07-29T06:46:46;11.65;;;9.05;;
8319;SDS011;4197;42.130;24.746;2022-07-29T06:49:17;10.02;;;8.90;;
8319;SDS011;4197;42.130;24.746;2022-07-29T06:51:47;11.68;;;8.95;;
8319;SDS011;4197;42.130;24.746;2022-07-29T06:54:15;10.85;;;8.40;;
8319;SDS011;4197;42.130;24.746;2022-07-29T06:56:44;10.90;;;8.40;;
8319;SDS011;4197;42.130;24.746;2022-07-29T06:59:12;13.18;;;8.32;;
8319;SDS011;4197;42.130;24.746;2022-07-29T07:01:41;13.85;;;8.60;;
8319;SDS011;4197;42.130;24.746;2022-07-29T07:04:10;16.13;;;10.98;;
8319;SDS011;4197;42.130;24.746;2022-07-29T07:06:40;15.52;;;8.63;;
8319;SDS011;4197;42.130;24.746;2022-07-29T07:09:10;16.38;;;9.82;;
8319;SDS011;4197;42.130;24.746;2022-07-29T07:11:38;10.45;;;9.35;;
8319;SDS011;4197;42.130;24.746;2022-07-29T07:14:06;10.30;;;8.27;;
8319;SDS011;4197;42.130;24.746;2022-07-29T07:16:35;10.48;;;8.63;;
8319;SDS011;4197;42.130;24.746;2022-07-29T07:19:03;11.05;;;8.10;;
8319;SDS011;4197;42.130;24.746;2022-07-29T07:21:32;10.30;;;8.23;;
8319;SDS011;4197;42.130;24.746;2022-07-29T07:24:01;9.38;;;8.40;;
8319;SDS011;4197;42.130;24.746;2022-07-29T07:26:31;9.18;;;8.27;;
8319;SDS011;4197;42.130;24.746;2022-07-29T07:28:59;9.48;;;7.68;;
8319;SDS011;4197;42.130;24.746;2022-07-29T07:31:27;10.15;;;7.22;;
8319;SDS011;4197;42.130;24.746;2022-07-29T07:33:56;14.77;;;7.45;;
8319;SDS011;4197;42.130;24.746;2022-07-29T07:36:25;11.98;;;6.80;;
8319;SDS011;4197;42.130;24.746;2022-07-29T07:38:53;14.93;;;7.35;;
8319;SDS011;4197;42.130;24.746;2022-07-29T07:41:22;7.47;;;6.47;;
8319;SDS011;4197;42.130;24.746;2022-07-29T07:43:52;9.38;;;6.80;;
8319;SDS011;4197;42.130;24.746;2022-07-29T07:46:20;7.70;;;6.78;;
8319;SDS011;4197;42.130;24.746;2022-07-29T07:48:48;11.20;;;7.10;;
8319;SDS011;4197;42.130;24.746;2022-07-29T07:51:18;11.20;;;6.80;;
8319;SDS011;4197;42.130;24.746;2022-07-29T07:53:47;13.00;;;5.97;;
8319;SDS011;4197;42.130;24.746;2022-07-29T07:56:16;13.65;;;7.30;;
8319;SDS011;4197;42.130;24.746;2022-07-29T07:58:44;8.73;;;4.05;;
8319;SDS011;4197;42.130;24.746;2022-07-29T08:01:14;6.80;;;5.00;;
8319;SDS011;4197;42.130;24.746;2022-07-29T08:03:45;9.48;;;5.32;;
8319;SDS011;4197;42.130;24.746;2022-07-29T08:06:13;8.55;;;4.68;;
8319;SDS011;4197;42.130;24.746;2022-07-29T08:08:41;6.70;;;3.85;;
8319;SDS011;4197;42.130;24.746;2022-07-29T08:11:10;7.60;;;4.72;;
8319;SDS011;4197;42.130;24.746;2022-07-29T08:13:38;6.60;;;4.72;;
8319;SDS011;4197;42.130;24.746;2022-07-29T08:16:06;6.97;;;4.25;;
8319;SDS011;4197;42.130;24.746;2022-07-29T08:18:44;6.85;;;4.47;;
8319;SDS011;4197;42.130;24.746;2022-07-29T08:21:13;7.43;;;4.57;;
8319;SDS011;4197;42.130;24.746;2022-07-29T08:23:43;10.00;;;4.80;;
8319;SDS011;4197;42.130;24.746;2022-07-29T08:26:25;6.07;;;4.05;;
8319;SDS011;4197;42.130;24.746;2022-07-29T08:28:53;5.75;;;3.80;;
8319;SDS011;4197;42.130;24.746;2022-07-29T08:31:22;5.25;;;3.88;;
8319;SDS011;4197;42.130;24.746;2022-07-29T08:33:51;12.65;;;4.82;;
8319;SDS011;4197;42.130;24.746;2022-07-29T08:36:22;10.98;;;3.85;;
8319;SDS011;4197;42.130;24.746;2022-07-29T08:38:51;6.07;;;3.80;;
8319;SDS011;4197;42.130;24.746;2022-07-29T08:41:19;5.47;;;3.60;;
8319;SDS011;4197;42.130;24.746;2022-07-29T08:43:48;5.18;;;3.75;;
8319;SDS011;4197;42.130;24.746;2022-07-29T08:46:17;6.63;;;4.03;;
8319;SDS011;4197;42.130;24.746;2022-07-29T08:48:46;5.90;;;4.05;;
8319;SDS011;4197;42.130;24.746;2022-07-29T08:51:16;4.85;;;3.97;;
8319;SDS011;4197;42.130;24.746;2022-07-29T08:53:47;9.02;;;4.82;;
8319;SDS011;4197;42.130;24.746;2022-07-29T08:56:16;12.63;;;5.45;;
8319;SDS011;4197;42.130;24.746;2022-07-29T08:58:45;8.10;;;4.82;;
8319;SDS011;4197;42.130;24.746;2022-07-29T09:01:17;8.70;;;4.57;;
8319;SDS011;4197;42.130;24.746;2022-07-29T09:04:09;6.38;;;4.40;;
8319;SDS011;4197;42.130;24.746;2022-07-29T09:06:42;9.07;;;5.05;;
8319;SDS011;4197;42.130;24.746;2022-07-29T09:09:12;5.00;;;3.25;;
8319;SDS011;4197;42.130;24.746;2022-07-29T09:11:41;9.30;;;3.90;;
8319;SDS011;4197;42.130;24.746;2022-07-29T09:14:12;7.50;;;3.55;;
8319;SDS011;4197;42.130;24.746;2022-07-29T09:16:47;8.85;;;4.00;;
8319;SDS011;4197;42.130;24.746;2022-07-29T09:19:20;3.80;;;3.35;;
8319;SDS011;4197;42.130;24.746;2022-07-29T09:21:52;5.40;;;3.53;;
8319;SDS011;4197;42.130;24.746;2022-07-29T09:24:42;4.90;;;3.20;;
8319;SDS011;4197;42.130;24.746;2022-07-29T09:27:21;5.90;;;3.50;;
8319;SDS011;4197;42.130;24.746;2022-07-29T09:29:56;7.78;;;3.58;;
8319;SDS011;4197;42.130;24.746;2022-07-29T09:32:26;6.57;;;3.45;;
8319;SDS011;4197;42.130;24.746;2022-07-29T09:35:15;4.50;;;3.25;;
8319;SDS011;4197;42.130;24.746;2022-07-29T09:37:46;6.65;;;3.55;;
8319;SDS011;4197;42.130;24.746;2022-07-29T09:40:15;22.08;;;4.45;;
8319;SDS011;4197;42.130;24.746;2022-07-29T09:42:44;9.68;;;3.78;;
8319;SDS011;4197;42.130;24.746;2022-07-29T09:45:13;7.05;;;3.22;;
8319;SDS011;4197;42.130;24.746;2022-07-29T09:47:54;3.63;;;3.13;;
8319;SDS011;4197;42.130;24.746;2022-07-29T09:50:34;4.18;;;3.00;;
8319;SDS011;4197;42.130;24.746;2022-07-29T09:53:04;4.05;;;2.90;;
8319;SDS011;4197;42.130;24.746;2022-07-29T09:55:32;3.65;;;3.20;;
8319;SDS011;4197;42.130;24.746;2022-07-29T09:58:16;4.95;;;3.08;;
8319;SDS011;4197;42.130;24.746;2022-07-29T10:00:45;5.40;;;2.85;;
8319;SDS011;4197;42.130;24.746;2022-07-29T10:03:15;9.65;;;3.53;;
8319;SDS011;4197;42.130;24.746;2022-07-29T10:05:45;4.63;;;2.67;;
8319;SDS011;4197;42.130;24.746;2022-07-29T10:08:33;6.50;;;3.10;;
8319;SDS011;4197;42.130;24.746;2022-07-29T10:11:11;6.93;;;3.00;;
8319;SDS011;4197;42.130;24.746;2022-07-29T10:13:40;6.50;;;3.00;;
8319;SDS011;4197;42.130;24.746;2022-07-29T10:16:09;10.48;;;3.28;;
8319;SDS011;4197;42.130;24.746;2022-07-29T10:18:40;4.95;;;2.90;;
8319;SDS011;4197;42.130;24.746;2022-07-29T10:21:10;3.08;;;2.78;;
8319;SDS011;4197;42.130;24.746;2022-07-29T10:24:00;6.47;;;3.45;;
8319;SDS011;4197;42.130;24.746;2022-07-29T10:26:29;4.63;;;2.58;;
8319;SDS011;4197;42.130;24.746;2022-07-29T10:28:58;5.78;;;3.08;;
8319;SDS011;4197;42.130;24.746;2022-07-29T10:31:28;4.80;;;2.78;;
8319;SDS011;4197;42.130;24.746;2022-07-29T10:34:08;7.18;;;3.50;;
8319;SDS011;4197;42.130;24.746;2022-07-29T10:36:47;4.57;;;3.28;;
8319;SDS011;4197;42.130;24.746;2022-07-29T10:39:31;10.23;;;3.70;;
8319;SDS011;4197;42.130;24.746;2022-07-29T10:42:17;3.88;;;2.72;;
8319;SDS011;4197;42.130;24.746;2022-07-29T10:45:00;4.38;;;2.92;;
8319;SDS011;4197;42.130;24.746;2022-07-29T10:47:29;17.98;;;4.30;;
8319;SDS011;4197;42.130;24.746;2022-07-29T10:50:01;4.07;;;3.05;;
8319;SDS011;4197;42.130;24.746;2022-07-29T10:55:35;5.50;;;2.90;;
8319;SDS011;4197;42.130;24.746;2022-07-29T10:58:12;5.57;;;3.13;;
8319;SDS011;4197;42.130;24.746;2022-07-29T11:00:43;6.20;;;3.40;;
8319;SDS011;4197;42.130;24.746;2022-07-29T11:06:15;3.45;;;2.92;;
8319;SDS011;4197;42.130;24.746;2022-07-29T11:12:05;3.70;;;3.30;;
8319;SDS011;4197;42.130;24.746;2022-07-29T11:15:18;4.95;;;2.90;;
8319;SDS011;4197;42.130;24.746;2022-07-29T11:20:46;5.68;;;3.47;;
8319;SDS011;4197;42.130;24.746;2022-07-29T11:23:17;3.92;;;3.40;;
8319;SDS011;4197;42.130;24.746;2022-07-29T11:26:05;4.25;;;2.97;;
8319;SDS011;4197;42.130;24.746;2022-07-29T11:29:04;3.90;;;3.30;;
8319;SDS011;4197;42.130;24.746;2022-07-29T11:31:43;5.15;;;3.30;;
8319;SDS011;4197;42.130;24.746;2022-07-29T11:34:16;3.75;;;3.17;;
8319;SDS011;4197;42.130;24.746;2022-07-29T11:39:45;5.65;;;3.17;;
8319;SDS011;4197;42.130;24.746;2022-07-29T11:45:12;5.13;;;3.10;;
8319;SDS011;4197;42.130;24.746;2022-07-29T11:48:05;8.90;;;3.20;;
8319;SDS011;4197;42.130;24.746;2022-07-29T11:50:57;6.07;;;3.40;;
8319;SDS011;4197;42.130;24.746;2022-07-29T11:53:26;6.47;;;2.63;;
8319;SDS011;4197;42.130;24.746;2022-07-29T11:55:58;5.25;;;3.40;;
8319;SDS011;4197;42.130;24.746;2022-07-29T11:58:29;8.77;;;3.40;;
8319;SDS011;4197;42.130;24.746;2022-07-29T12:01:00;7.53;;;3.45;;
8319;SDS011;4197;42.130;24.746;2022-07-29T12:03:48;6.47;;;3.38;;
8319;SDS011;4197;42.130;24.746;2022-07-29T12:06:32;11.35;;;4.13;;
8319;SDS011;4197;42.130;24.746;2022-07-29T12:09:00;6.10;;;3.58;;
8319;SDS011;4197;42.130;24.746;2022-07-29T12:11:39;14.98;;;3.15;;
8319;SDS011;4197;42.130;24.746;2022-07-29T12:16:57;5.00;;;2.83;;
8319;SDS011;4197;42.130;24.746;2022-07-29T12:19:26;6.00;;;3.35;;
8319;SDS011;4197;42.130;24.746;2022-07-29T12:21:56;5.25;;;3.40;;
8319;SDS011;4197;42.130;24.746;2022-07-29T12:24:28;4.95;;;3.05;;
8319;SDS011;4197;42.130;24.746;2022-07-29T12:27:10;17.50;;;3.45;;
8319;SDS011;4197;42.130;24.746;2022-07-29T12:29:39;14.95;;;3.28;;
8319;SDS011;4197;42.130;24.746;2022-07-29T12:32:15;11.80;;;4.03;;
8319;SDS011;4197;42.130;24.746;2022-07-29T12:34:45;5.72;;;3.00;;
8319;SDS011;4197;42.130;24.746;2022-07-29T12:37:13;5.70;;;2.70;;
8319;SDS011;4197;42.130;24.746;2022-07-29T12:39:42;5.90;;;2.60;;
8319;SDS011;4197;42.130;24.746;2022-07-29T12:42:12;3.13;;;2.72;;
8319;SDS011;4197;42.130;24.746;2022-07-29T12:44:45;4.00;;;2.90;;
8319;SDS011;4197;42.130;24.746;2022-07-29T12:47:17;4.25;;;2.92;;
8319;SDS011;4197;42.130;24.746;2022-07-29T12:49:46;4.13;;;3.25;;
8319;SDS011;4197;42.130;24.746;2022-07-29T12:52:28;10.70;;;3.15;;
8319;SDS011;4197;42.130;24.746;2022-07-29T12:54:58;4.10;;;3.00;;
8319;SDS011;4197;42.130;24.746;2022-07-29T12:57:27;7.03;;;3.20;;
8319;SDS011;4197;42.130;24.746;2022-07-29T12:59:59;11.10;;;4.07;;
8319;SDS011;4197;42.130;24.746;2022-07-29T13:02:33;10.18;;;3.70;;
8319;SDS011;4197;42.130;24.746;2022-07-29T13:05:03;13.25;;;4.03;;
8319;SDS011;4197;42.130;24.746;2022-07-29T13:07:34;7.38;;;4.15;;
8319;SDS011;4197;42.130;24.746;2022-07-29T13:10:24;4.97;;;3.92;;
8319;SDS011;4197;42.130;24.746;2022-07-29T13:13:01;5.70;;;3.88;;
8319;SDS011;4197;42.130;24.746;2022-07-29T13:15:32;4.93;;;3.28;;
8319;SDS011;4197;42.130;24.746;2022-07-29T13:18:02;7.60;;;3.38;;
8319;SDS011;4197;42.130;24.746;2022-07-29T13:20:33;8.25;;;3.60;;
8319;SDS011;4197;42.130;24.746;2022-07-29T13:23:02;4.45;;;3.40;;
8319;SDS011;4197;42.130;24.746;2022-07-29T13:25:30;8.10;;;4.05;;
8319;SDS011;4197;42.130;24.746;2022-07-29T13:27:59;8.05;;;3.75;;
8319;SDS011;4197;42.130;24.746;2022-07-29T13:30:28;5.65;;;3.78;;
8319;SDS011;4197;42.130;24.746;2022-07-29T13:32:56;3.90;;;3.53;;
8319;SDS011;4197;42.130;24.746;2022-07-29T13:35:26;7.28;;;3.70;;
8319;SDS011;4197;42.130;24.746;2022-07-29T13:37:56;5.72;;;3.58;;
8319;SDS011;4197;42.130;24.746;2022-07-29T13:40:24;5.07;;;3.42;;
8319;SDS011;4197;42.130;24.746;2022-07-29T13:42:53;5.72;;;3.60;;
8319;SDS011;4197;42.130;24.746;2022-07-29T13:45:21;8.05;;;3.90;;
8319;SDS011;4197;42.130;24.746;2022-07-29T13:47:49;10.25;;;3.53;;
8319;SDS011;4197;42.130;24.746;2022-07-29T13:50:18;6.68;;;3.72;;
8319;SDS011;4197;42.130;24.746;2022-07-29T13:52:48;7.80;;;3.60;;
8319;SDS011;4197;42.130;24.746;2022-07-29T13:55:17;15.90;;;3.95;;
8319;SDS011;4197;42.130;24.746;2022-07-29T13:57:46;4.57;;;3.45;;
8319;SDS011;4197;42.130;24.746;2022-07-29T14:00:15;6.32;;;3.55;;
8319;SDS011;4197;42.130;24.746;2022-07-29T14:02:45;6.45;;;3.20;;
8319;SDS011;4197;42.130;24.746;2022-07-29T14:05:13;5.85;;;3.47;;
8319;SDS011;4197;42.130;24.746;2022-07-29T14:07:42;12.88;;;3.90;;
8319;SDS011;4197;42.130;24.746;2022-07-29T14:10:11;4.22;;;3.78;;
8319;SDS011;4197;42.130;24.746;2022-07-29T14:12:45;6.68;;;3.17;;
8319;SDS011;4197;42.130;24.746;2022-07-29T14:15:13;5.15;;;3.50;;
8319;SDS011;4197;42.130;24.746;2022-07-29T14:17:41;7.95;;;3.47;;
8319;SDS011;4197;42.130;24.746;2022-07-29T14:20:10;7.10;;;3.10;;
8319;SDS011;4197;42.130;24.746;2022-07-29T14:22:38;7.65;;;3.45;;
8319;SDS011;4197;42.130;24.746;2022-07-29T14:25:12;9.55;;;3.75;;
8319;SDS011;4197;42.130;24.746;2022-07-29T14:27:41;12.57;;;3.55;;
8319;SDS011;4197;42.130;24.746;2022-07-29T14:30:10;16.10;;;3.67;;
8319;SDS011;4197;42.130;24.746;2022-07-29T14:32:40;4.13;;;3.33;;
8319;SDS011;4197;42.130;24.746;2022-07-29T14:35:09;9.60;;;3.13;;
8319;SDS011;4197;42.130;24.746;2022-07-29T14:37:38;6.07;;;2.80;;
8319;SDS011;4197;42.130;24.746;2022-07-29T14:40:06;7.93;;;3.05;;
8319;SDS011;4197;42.130;24.746;2022-07-29T14:42:37;6.82;;;3.20;;
8319;SDS011;4197;42.130;24.746;2022-07-29T14:45:06;7.50;;;3.78;;
8319;SDS011;4197;42.130;24.746;2022-07-29T14:47:35;7.93;;;2.78;;
8319;SDS011;4197;42.130;24.746;2022-07-29T14:50:05;12.02;;;3.53;;
8319;SDS011;4197;42.130;24.746;2022-07-29T14:52:34;6.32;;;2.92;;
8319;SDS011;4197;42.130;24.746;2022-07-29T14:55:03;6.50;;;2.85;;
8319;SDS011;4197;42.130;24.746;2022-07-29T14:57:46;12.70;;;3.28;;
8319;SDS011;4197;42.130;24.746;2022-07-29T15:00:16;8.00;;;3.42;;
8319;SDS011;4197;42.130;24.746;2022-07-29T15:02:45;10.25;;;3.15;;
8319;SDS011;4197;42.130;24.746;2022-07-29T15:05:28;16.40;;;4.32;;
8319;SDS011;4197;42.130;24.746;2022-07-29T15:07:57;5.25;;;2.70;;
8319;SDS011;4197;42.130;24.746;2022-07-29T15:10:26;4.03;;;2.83;;
8319;SDS011;4197;42.130;24.746;2022-07-29T15:12:56;3.30;;;2.58;;
8319;SDS011;4197;42.130;24.746;2022-07-29T15:15:25;8.50;;;3.20;;
8319;SDS011;4197;42.130;24.746;2022-07-29T15:17:53;5.30;;;2.70;;
8319;SDS011;4197;42.130;24.746;2022-07-29T15:20:21;8.25;;;3.20;;
8319;SDS011;4197;42.130;24.746;2022-07-29T15:22:51;5.95;;;2.55;;
8319;SDS011;4197;42.130;24.746;2022-07-29T15:25:21;6.22;;;3.13;;
8319;SDS011;4197;42.130;24.746;2022-07-29T15:27:50;11.40;;;3.28;;
8319;SDS011;4197;42.130;24.746;2022-07-29T15:30:25;8.95;;;2.90;;
8319;SDS011;4197;42.130;24.746;2022-07-29T15:32:59;7.32;;;3.33;;
8319;SDS011;4197;42.130;24.746;2022-07-29T15:35:28;4.15;;;2.88;;
8319;SDS011;4197;42.130;24.746;2022-07-29T15:37:56;7.53;;;3.17;;
8319;SDS011;4197;42.130;24.746;2022-07-29T15:40:24;7.38;;;3.63;;
8319;SDS011;4197;42.130;24.746;2022-07-29T15:42:53;4.93;;;3.75;;